sensor_id;sensor_type;location;lat;lon;timestamp;pressure;altitude;pressure_sealevel;temperature;humidity
28628;BME280;15815;46.760;19.604;2023-07-20T00:00:46;99633.69;;;24.43;68.79
28628;BME280;15815;46.760;19.604;2023-07-20T00:03:13;99627.59;;;24.24;69.55
28628;BME280;15815;46.760;19.604;2023-07-20T00:05:39;99609.28;;;24.16;69.61
28628;BME280;15815;46.760;19.604;2023-07-20T00:08:05;99625.75;;;24.21;69.29
28628;BME280;15815;46.760;19.604;2023-07-20T00:10:30;99641.69;;;24.27;69.46
28628;BME280;15815;46.760;19.604;2023-07-20T00:12:56;99627.56;;;24.18;69.91
28628;BME280;15815;46.760;19.604;2023-07-20T00:15:21;99633.59;;;24.20;69.94
28628;BME280;15815;46.760;19.604;2023-07-20T00:17:47;99617.84;;;24.04;69.69
28628;BME280;15815;46.760;19.604;2023-07-20T00:20:12;99618.06;;;23.95;70.54
28628;BME280;15815;46.760;19.604;2023-07-20T00:22:38;99625.09;;;23.94;70.60
28628;BME280;15815;46.760;19.604;2023-07-20T00:25:04;99651.22;;;24.02;71.34
28628;BME280;15815;46.760;19.604;2023-07-20T00:27:29;99656.69;;;24.00;70.79
28628;BME280;15815;46.760;19.604;2023-07-20T00:29:55;99647.28;;;23.94;71.14
28628;BME280;15815;46.760;19.604;2023-07-20T00:32:20;99642.03;;;23.87;70.86
28628;BME280;15815;46.760;19.604;2023-07-20T00:34:46;99655.88;;;23.94;71.33
28628;BME280;15815;46.760;19.604;2023-07-20T00:37:11;99638.31;;;23.81;71.53
28628;BME280;15815;46.760;19.604;2023-07-20T00:39:37;99648.81;;;23.89;72.72
28628;BME280;15815;46.760;19.604;2023-07-20T00:42:03;99637.00;;;23.76;71.50
28628;BME280;15815;46.760;19.604;2023-07-20T00:44:28;99629.41;;;23.73;73.44
28628;BME280;15815;46.760;19.604;2023-07-20T00:46:54;99629.13;;;23.71;73.22
28628;BME280;15815;46.760;19.604;2023-07-20T00:49:23;99642.47;;;23.74;71.46
28628;BME280;15815;46.760;19.604;2023-07-20T00:51:49;99640.88;;;23.73;71.93
28628;BME280;15815;46.760;19.604;2023-07-20T00:54:15;99627.03;;;23.66;72.04
28628;BME280;15815;46.760;19.604;2023-07-20T00:56:40;99616.81;;;23.59;71.70
28628;BME280;15815;46.760;19.604;2023-07-20T00:59:09;99637.16;;;23.61;72.28
28628;BME280;15815;46.760;19.604;2023-07-20T01:01:36;99632.38;;;23.53;72.29
28628;BME280;15815;46.760;19.604;2023-07-20T01:04:02;99618.81;;;23.53;72.50
28628;BME280;15815;46.760;19.604;2023-07-20T01:06:46;99593.22;;;23.44;73.65
28628;BME280;15815;46.760;19.604;2023-07-20T01:09:18;99598.41;;;23.40;73.64
28628;BME280;15815;46.760;19.604;2023-07-20T01:14:18;99596.72;;;23.28;72.71
28628;BME280;15815;46.760;19.604;2023-07-20T01:16:43;99598.03;;;23.27;72.64
28628;BME280;15815;46.760;19.604;2023-07-20T01:19:09;99605.56;;;23.24;73.54
28628;BME280;15815;46.760;19.604;2023-07-20T01:21:41;99611.84;;;23.28;73.52
28628;BME280;15815;46.760;19.604;2023-07-20T01:24:36;99620.97;;;23.27;73.92
28628;BME280;15815;46.760;19.604;2023-07-20T01:32:33;99613.78;;;23.05;73.25
28628;BME280;15815;46.760;19.604;2023-07-20T01:35:04;99622.66;;;23.07;73.61
28628;BME280;15815;46.760;19.604;2023-07-20T01:37:31;99625.56;;;22.87;74.99
28628;BME280;15815;46.760;19.604;2023-07-20T01:39:59;99628.72;;;22.89;74.51
28628;BME280;15815;46.760;19.604;2023-07-20T01:42:26;99635.91;;;23.05;73.73
28628;BME280;15815;46.760;19.604;2023-07-20T01:44:51;99635.28;;;22.95;73.67
28628;BME280;15815;46.760;19.604;2023-07-20T01:47:17;99618.03;;;22.90;73.51
28628;BME280;15815;46.760;19.604;2023-07-20T01:49:43;99601.22;;;22.77;75.20
28628;BME280;15815;46.760;19.604;2023-07-20T01:52:09;99621.69;;;22.90;74.18
28628;BME280;15815;46.760;19.604;2023-07-20T01:54:35;99638.44;;;22.97;73.48
28628;BME280;15815;46.760;19.604;2023-07-20T01:57:00;99619.84;;;22.87;73.91
28628;BME280;15815;46.760;19.604;2023-07-20T01:59:26;99621.13;;;22.86;74.96
28628;BME280;15815;46.760;19.604;2023-07-20T02:01:52;99619.00;;;22.81;74.01
28628;BME280;15815;46.760;19.604;2023-07-20T02:04:17;99617.56;;;22.71;75.06
28628;BME280;15815;46.760;19.604;2023-07-20T02:06:43;99637.78;;;22.82;75.44
28628;BME280;15815;46.760;19.604;2023-07-20T02:09:09;99617.28;;;22.69;75.02
28628;BME280;15815;46.760;19.604;2023-07-20T02:11:34;99625.88;;;22.69;75.13
28628;BME280;15815;46.760;19.604;2023-07-20T02:14:00;99643.41;;;22.76;74.76
28628;BME280;15815;46.760;19.604;2023-07-20T02:16:25;99628.44;;;22.67;74.05
28628;BME280;15815;46.760;19.604;2023-07-20T02:18:52;99633.44;;;22.72;74.60
28628;BME280;15815;46.760;19.604;2023-07-20T02:21:18;99656.44;;;22.77;74.95
28628;BME280;15815;46.760;19.604;2023-07-20T02:23:44;99666.13;;;22.80;74.22
28628;BME280;15815;46.760;19.604;2023-07-20T02:26:09;99638.91;;;22.70;75.05
28628;BME280;15815;46.760;19.604;2023-07-20T02:28:35;99646.72;;;22.69;75.42
28628;BME280;15815;46.760;19.604;2023-07-20T02:31:00;99650.34;;;22.70;75.22
28628;BME280;15815;46.760;19.604;2023-07-20T02:33:26;99645.88;;;22.63;76.08
28628;BME280;15815;46.760;19.604;2023-07-20T02:35:51;99641.94;;;22.61;75.09
28628;BME280;15815;46.760;19.604;2023-07-20T02:38:17;99650.03;;;22.62;75.25
28628;BME280;15815;46.760;19.604;2023-07-20T02:40:42;99654.69;;;22.60;75.51
28628;BME280;15815;46.760;19.604;2023-07-20T02:43:08;99664.78;;;22.55;75.18
28628;BME280;15815;46.760;19.604;2023-07-20T02:45:39;99655.47;;;22.40;75.16
28628;BME280;15815;46.760;19.604;2023-07-20T02:48:05;99675.69;;;22.31;76.71
28628;BME280;15815;46.760;19.604;2023-07-20T02:50:30;99665.88;;;22.17;76.42
28628;BME280;15815;46.760;19.604;2023-07-20T02:52:56;99669.97;;;22.31;75.71
28628;BME280;15815;46.760;19.604;2023-07-20T02:55:21;99675.91;;;22.27;75.86
28628;BME280;15815;46.760;19.604;2023-07-20T02:57:50;99654.84;;;22.30;75.41
28628;BME280;15815;46.760;19.604;2023-07-20T03:00:15;99676.31;;;22.40;75.84
28628;BME280;15815;46.760;19.604;2023-07-20T03:02:41;99668.28;;;22.44;75.24
28628;BME280;15815;46.760;19.604;2023-07-20T03:05:07;99668.28;;;22.44;75.00
28628;BME280;15815;46.760;19.604;2023-07-20T03:07:35;99672.25;;;22.47;74.92
28628;BME280;15815;46.760;19.604;2023-07-20T03:10:01;99671.94;;;22.45;75.10
28628;BME280;15815;46.760;19.604;2023-07-20T03:12:26;99675.59;;;22.45;74.98
28628;BME280;15815;46.760;19.604;2023-07-20T03:14:52;99687.63;;;22.49;74.80
28628;BME280;15815;46.760;19.604;2023-07-20T03:17:17;99676.47;;;22.51;75.12
28628;BME280;15815;46.760;19.604;2023-07-20T03:19:43;99672.25;;;22.47;75.33
28628;BME280;15815;46.760;19.604;2023-07-20T03:22:08;99681.19;;;22.55;75.16
28628;BME280;15815;46.760;19.604;2023-07-20T03:24:34;99674.59;;;22.48;75.12
28628;BME280;15815;46.760;19.604;2023-07-20T03:26:59;99679.06;;;22.49;74.45
28628;BME280;15815;46.760;19.604;2023-07-20T03:29:24;99681.91;;;22.49;75.14
28628;BME280;15815;46.760;19.604;2023-07-20T03:31:50;99682.19;;;22.51;75.18
28628;BME280;15815;46.760;19.604;2023-07-20T03:34:15;99693.38;;;22.49;75.40
28628;BME280;15815;46.760;19.604;2023-07-20T03:36:41;99676.81;;;22.39;75.20
28628;BME280;15815;46.760;19.604;2023-07-20T03:39:06;99683.34;;;22.39;75.92
28628;BME280;15815;46.760;19.604;2023-07-20T03:41:32;99691.50;;;22.46;76.05
28628;BME280;15815;46.760;19.604;2023-07-20T03:43:57;99678.69;;;22.42;75.36
28628;BME280;15815;46.760;19.604;2023-07-20T03:46:23;99687.13;;;22.31;77.00
28628;BME280;15815;46.760;19.604;2023-07-20T03:48:48;99695.94;;;22.47;76.16
28628;BME280;15815;46.760;19.604;2023-07-20T03:51:14;99662.94;;;22.32;76.54
28628;BME280;15815;46.760;19.604;2023-07-20T03:53:39;99701.28;;;22.60;75.49
28628;BME280;15815;46.760;19.604;2023-07-20T03:56:08;99680.63;;;22.50;75.46
28628;BME280;15815;46.760;19.604;2023-07-20T03:58:33;99683.53;;;22.56;75.37
28628;BME280;15815;46.760;19.604;2023-07-20T04:00:58;99690.34;;;22.59;75.03
28628;BME280;15815;46.760;19.604;2023-07-20T04:03:25;99695.06;;;22.62;75.38
28628;BME280;15815;46.760;19.604;2023-07-20T04:05:51;99700.06;;;22.67;75.20
28628;BME280;15815;46.760;19.604;2023-07-20T04:08:18;99698.34;;;22.75;74.95
28628;BME280;15815;46.760;19.604;2023-07-20T04:10:44;99706.53;;;22.82;75.00
28628;BME280;15815;46.760;19.604;2023-07-20T04:13:10;99695.78;;;22.77;75.12
28628;BME280;15815;46.760;19.604;2023-07-20T04:15:35;99708.38;;;22.85;75.50
28628;BME280;15815;46.760;19.604;2023-07-20T04:18:00;99701.97;;;22.96;75.06
28628;BME280;15815;46.760;19.604;2023-07-20T04:20:26;99710.84;;;22.98;75.05
28628;BME280;15815;46.760;19.604;2023-07-20T04:22:52;99710.56;;;22.96;75.73
28628;BME280;15815;46.760;19.604;2023-07-20T04:25:18;99705.47;;;23.05;75.06
28628;BME280;15815;46.760;19.604;2023-07-20T04:27:43;99717.03;;;23.17;74.97
28628;BME280;15815;46.760;19.604;2023-07-20T04:30:10;99724.69;;;23.25;75.01
28628;BME280;15815;46.760;19.604;2023-07-20T04:32:36;99719.81;;;23.31;74.99
28628;BME280;15815;46.760;19.604;2023-07-20T04:35:06;99711.13;;;23.26;75.56
28628;BME280;15815;46.760;19.604;2023-07-20T04:37:31;99727.72;;;23.42;75.54
28628;BME280;15815;46.760;19.604;2023-07-20T04:39:57;99715.47;;;23.41;75.49
28628;BME280;15815;46.760;19.604;2023-07-20T04:42:22;99717.13;;;23.54;75.33
28628;BME280;15815;46.760;19.604;2023-07-20T04:44:48;99724.78;;;23.62;75.27
28628;BME280;15815;46.760;19.604;2023-07-20T04:47:13;99715.91;;;23.60;75.79
28628;BME280;15815;46.760;19.604;2023-07-20T04:49:39;99728.44;;;23.63;75.56
28628;BME280;15815;46.760;19.604;2023-07-20T04:52:04;99741.31;;;23.73;75.71
28628;BME280;15815;46.760;19.604;2023-07-20T04:54:30;99754.13;;;23.78;74.86
28628;BME280;15815;46.760;19.604;2023-07-20T04:56:55;99759.00;;;23.66;75.14
28628;BME280;15815;46.760;19.604;2023-07-20T04:59:21;99758.47;;;23.67;74.94
28628;BME280;15815;46.760;19.604;2023-07-20T05:01:46;99758.00;;;23.74;74.62
28628;BME280;15815;46.760;19.604;2023-07-20T05:04:12;99754.59;;;23.70;74.32
28628;BME280;15815;46.760;19.604;2023-07-20T05:06:37;99729.50;;;23.65;74.36
28628;BME280;15815;46.760;19.604;2023-07-20T05:09:03;99738.91;;;23.66;73.71
28628;BME280;15815;46.760;19.604;2023-07-20T05:11:28;99744.22;;;23.79;74.61
28628;BME280;15815;46.760;19.604;2023-07-20T05:13:54;99752.53;;;23.77;74.08
28628;BME280;15815;46.760;19.604;2023-07-20T05:16:19;99732.28;;;23.86;73.88
28628;BME280;15815;46.760;19.604;2023-07-20T05:18:45;99748.00;;;23.96;72.78
28628;BME280;15815;46.760;19.604;2023-07-20T05:21:10;99762.63;;;23.98;74.40
28628;BME280;15815;46.760;19.604;2023-07-20T05:23:36;99739.66;;;23.98;74.42
28628;BME280;15815;46.760;19.604;2023-07-20T05:26:01;99764.06;;;24.14;73.88
28628;BME280;15815;46.760;19.604;2023-07-20T05:28:27;99759.56;;;24.07;74.18
28628;BME280;15815;46.760;19.604;2023-07-20T05:30:52;99773.13;;;24.07;72.68
28628;BME280;15815;46.760;19.604;2023-07-20T05:33:19;99772.69;;;24.19;74.03
28628;BME280;15815;46.760;19.604;2023-07-20T05:35:44;99773.25;;;24.23;73.78
28628;BME280;15815;46.760;19.604;2023-07-20T05:38:10;99756.16;;;24.40;74.11
28628;BME280;15815;46.760;19.604;2023-07-20T05:40:38;99755.41;;;24.45;73.63
28628;BME280;15815;46.760;19.604;2023-07-20T05:43:03;99749.66;;;24.51;72.66
28628;BME280;15815;46.760;19.604;2023-07-20T05:45:29;99759.56;;;24.44;73.98
28628;BME280;15815;46.760;19.604;2023-07-20T05:47:54;99762.47;;;24.55;73.87
28628;BME280;15815;46.760;19.604;2023-07-20T05:52:55;99772.03;;;24.89;74.34
28628;BME280;15815;46.760;19.604;2023-07-20T05:55:20;99782.06;;;25.11;74.69
28628;BME280;15815;46.760;19.604;2023-07-20T05:57:46;99782.06;;;25.11;73.96
28628;BME280;15815;46.760;19.604;2023-07-20T06:00:13;99772.97;;;25.46;73.67
28628;BME280;15815;46.760;19.604;2023-07-20T06:02:39;99778.28;;;25.70;73.98
28628;BME280;15815;46.760;19.604;2023-07-20T06:05:06;99763.38;;;25.88;74.30
28628;BME280;15815;46.760;19.604;2023-07-20T06:07:31;99771.47;;;25.90;74.87
28628;BME280;15815;46.760;19.604;2023-07-20T06:09:57;99760.44;;;26.16;73.22
28628;BME280;15815;46.760;19.604;2023-07-20T06:12:22;99774.31;;;26.23;73.38
28628;BME280;15815;46.760;19.604;2023-07-20T06:14:48;99765.09;;;26.53;72.38
28628;BME280;15815;46.760;19.604;2023-07-20T06:17:13;99760.03;;;26.75;71.55
28628;BME280;15815;46.760;19.604;2023-07-20T06:19:39;99772.31;;;26.82;72.12
28628;BME280;15815;46.760;19.604;2023-07-20T06:22:04;99765.00;;;26.80;70.42
28628;BME280;15815;46.760;19.604;2023-07-20T06:24:30;99774.47;;;27.28;70.13
28628;BME280;15815;46.760;19.604;2023-07-20T06:26:55;99782.81;;;27.43;70.00
28628;BME280;15815;46.760;19.604;2023-07-20T06:29:21;99772.81;;;27.44;69.00
28628;BME280;15815;46.760;19.604;2023-07-20T06:31:46;99781.25;;;27.77;67.52
28628;BME280;15815;46.760;19.604;2023-07-20T06:34:12;99780.91;;;27.86;67.23
28628;BME280;15815;46.760;19.604;2023-07-20T06:36:40;99777.59;;;28.07;65.64
28628;BME280;15815;46.760;19.604;2023-07-20T06:39:05;99781.25;;;28.37;65.96
28628;BME280;15815;46.760;19.604;2023-07-20T06:41:31;99764.22;;;28.58;64.75
28628;BME280;15815;46.760;19.604;2023-07-20T06:43:56;99761.78;;;28.62;63.81
28628;BME280;15815;46.760;19.604;2023-07-20T06:46:22;99777.59;;;29.04;61.96
28628;BME280;15815;46.760;19.604;2023-07-20T06:48:47;99768.16;;;29.04;62.17
28628;BME280;15815;46.760;19.604;2023-07-20T06:51:13;99763.28;;;29.81;59.94
28628;BME280;15815;46.760;19.604;2023-07-20T06:53:38;99760.06;;;30.17;59.83
28628;BME280;15815;46.760;19.604;2023-07-20T06:56:04;99768.16;;;30.64;58.50
28628;BME280;15815;46.760;19.604;2023-07-20T06:58:29;99764.06;;;31.20;56.70
28628;BME280;15815;46.760;19.604;2023-07-20T07:00:55;99777.13;;;31.60;54.46
28628;BME280;15815;46.760;19.604;2023-07-20T07:03:20;99772.72;;;31.46;55.45
28628;BME280;15815;46.760;19.604;2023-07-20T07:05:46;99770.09;;;31.22;52.41
28628;BME280;15815;46.760;19.604;2023-07-20T07:08:11;99777.22;;;31.34;52.52
28628;BME280;15815;46.760;19.604;2023-07-20T07:10:37;99777.50;;;30.96;51.22
28628;BME280;15815;46.760;19.604;2023-07-20T07:13:03;99780.00;;;31.74;50.24
28628;BME280;15815;46.760;19.604;2023-07-20T07:15:28;99782.50;;;31.90;49.96
28628;BME280;15815;46.760;19.604;2023-07-20T07:17:54;99790.38;;;31.69;49.63
28628;BME280;15815;46.760;19.604;2023-07-20T07:20:20;99784.50;;;31.61;48.34
28628;BME280;15815;46.760;19.604;2023-07-20T07:22:45;99789.88;;;32.12;46.60
28628;BME280;15815;46.760;19.604;2023-07-20T07:25:11;99788.22;;;32.24;46.97
28628;BME280;15815;46.760;19.604;2023-07-20T07:27:36;99795.34;;;32.37;46.53
28628;BME280;15815;46.760;19.604;2023-07-20T07:30:03;99785.09;;;32.22;44.50
28628;BME280;15815;46.760;19.604;2023-07-20T07:32:28;99797.38;;;32.28;46.64
28628;BME280;15815;46.760;19.604;2023-07-20T07:34:54;99805.91;;;32.55;45.84
28628;BME280;15815;46.760;19.604;2023-07-20T07:37:19;99804.34;;;33.11;44.99
28628;BME280;15815;46.760;19.604;2023-07-20T07:39:46;99802.03;;;33.53;44.35
28628;BME280;15815;46.760;19.604;2023-07-20T07:42:12;99809.84;;;33.81;44.15
28628;BME280;15815;46.760;19.604;2023-07-20T07:44:37;99802.91;;;34.91;43.16
28628;BME280;15815;46.760;19.604;2023-07-20T07:47:03;99807.19;;;34.90;41.77
28628;BME280;15815;46.760;19.604;2023-07-20T07:49:28;99807.56;;;34.94;41.11
28628;BME280;15815;46.760;19.604;2023-07-20T07:51:54;99808.25;;;35.65;41.93
28628;BME280;15815;46.760;19.604;2023-07-20T07:54:20;99811.38;;;35.67;41.37
28628;BME280;15815;46.760;19.604;2023-07-20T07:56:45;99806.19;;;35.90;40.60
28628;BME280;15815;46.760;19.604;2023-07-20T07:59:10;99811.66;;;35.86;39.79
28628;BME280;15815;46.760;19.604;2023-07-20T08:01:36;99821.09;;;36.02;38.84
28628;BME280;15815;46.760;19.604;2023-07-20T08:04:02;99816.47;;;37.26;38.15
28628;BME280;15815;46.760;19.604;2023-07-20T08:06:27;99818.63;;;37.69;37.35
28628;BME280;15815;46.760;19.604;2023-07-20T08:08:55;99818.06;;;38.08;35.93
28628;BME280;15815;46.760;19.604;2023-07-20T08:11:20;99792.28;;;38.43;33.86
28628;BME280;15815;46.760;19.604;2023-07-20T08:13:46;99833.38;;;38.43;35.12
28628;BME280;15815;46.760;19.604;2023-07-20T08:16:11;99822.34;;;38.70;34.60
28628;BME280;15815;46.760;19.604;2023-07-20T08:18:37;99816.75;;;37.91;34.43
28628;BME280;15815;46.760;19.604;2023-07-20T08:21:02;99819.69;;;38.18;35.20
28628;BME280;15815;46.760;19.604;2023-07-20T08:23:28;99803.31;;;37.88;34.23
28628;BME280;15815;46.760;19.604;2023-07-20T08:25:54;99819.84;;;37.66;33.74
28628;BME280;15815;46.760;19.604;2023-07-20T08:40:26;99846.75;;;38.26;32.29
28628;BME280;15815;46.760;19.604;2023-07-20T08:42:54;99840.44;;;38.86;32.62
28628;BME280;15815;46.760;19.604;2023-07-20T08:45:22;99846.16;;;38.64;30.23
28628;BME280;15815;46.760;19.604;2023-07-20T08:47:50;99831.66;;;39.63;32.41
28628;BME280;15815;46.760;19.604;2023-07-20T08:50:16;99831.53;;;39.61;31.38
28628;BME280;15815;46.760;19.604;2023-07-20T08:52:41;99837.88;;;39.58;31.58
28628;BME280;15815;46.760;19.604;2023-07-20T08:55:07;99831.03;;;40.25;31.25
28628;BME280;15815;46.760;19.604;2023-07-20T08:57:33;99834.03;;;40.77;30.50
28628;BME280;15815;46.760;19.604;2023-07-20T09:00:02;99824.00;;;40.70;29.67
28628;BME280;15815;46.760;19.604;2023-07-20T09:02:28;99827.81;;;41.04;28.61
28628;BME280;15815;46.760;19.604;2023-07-20T09:04:54;99826.53;;;40.64;28.91
28628;BME280;15815;46.760;19.604;2023-07-20T09:07:20;99834.94;;;41.65;27.10
28628;BME280;15815;46.760;19.604;2023-07-20T09:09:48;99822.75;;;41.38;26.56
28628;BME280;15815;46.760;19.604;2023-07-20T09:12:15;99825.28;;;41.31;26.49
28628;BME280;15815;46.760;19.604;2023-07-20T09:14:44;99826.06;;;40.89;26.04
28628;BME280;15815;46.760;19.604;2023-07-20T09:17:14;99834.63;;;41.28;25.67
28628;BME280;15815;46.760;19.604;2023-07-20T09:19:45;99831.53;;;41.59;25.70
28628;BME280;15815;46.760;19.604;2023-07-20T09:22:11;99828.53;;;40.93;24.43
28628;BME280;15815;46.760;19.604;2023-07-20T09:24:36;99826.13;;;41.55;27.09
28628;BME280;15815;46.760;19.604;2023-07-20T09:27:02;99827.81;;;41.91;25.16
28628;BME280;15815;46.760;19.604;2023-07-20T09:29:27;99812.03;;;41.98;26.88
28628;BME280;15815;46.760;19.604;2023-07-20T09:32:00;99830.41;;;42.67;25.19
28628;BME280;15815;46.760;19.604;2023-07-20T09:34:26;99818.09;;;42.36;26.26
28628;BME280;15815;46.760;19.604;2023-07-20T09:36:51;99825.53;;;42.37;24.95
28628;BME280;15815;46.760;19.604;2023-07-20T09:39:17;99824.28;;;42.51;24.96
28628;BME280;15815;46.760;19.604;2023-07-20T09:41:42;99810.34;;;41.95;26.05
28628;BME280;15815;46.760;19.604;2023-07-20T09:44:08;99808.97;;;42.08;24.03
28628;BME280;15815;46.760;19.604;2023-07-20T09:46:46;99823.41;;;43.09;22.80
28628;BME280;15815;46.760;19.604;2023-07-20T09:49:12;99822.31;;;42.68;25.33
28628;BME280;15815;46.760;19.604;2023-07-20T09:51:37;99819.44;;;43.42;24.37
28628;BME280;15815;46.760;19.604;2023-07-20T09:54:04;99811.91;;;42.90;24.88
28628;BME280;15815;46.760;19.604;2023-07-20T09:56:30;99813.84;;;43.23;22.85
28628;BME280;15815;46.760;19.604;2023-07-20T09:58:56;99798.38;;;43.36;23.56
28628;BME280;15815;46.760;19.604;2023-07-20T10:01:22;99816.47;;;43.42;23.35
28628;BME280;15815;46.760;19.604;2023-07-20T10:03:49;99810.75;;;43.21;24.06
28628;BME280;15815;46.760;19.604;2023-07-20T10:06:20;99804.22;;;43.47;23.79
28628;BME280;15815;46.760;19.604;2023-07-20T10:08:52;99817.59;;;43.48;23.34
28628;BME280;15815;46.760;19.604;2023-07-20T10:11:18;99810.63;;;43.56;23.06
28628;BME280;15815;46.760;19.604;2023-07-20T10:13:48;99801.13;;;43.96;22.74
28628;BME280;15815;46.760;19.604;2023-07-20T10:16:24;99807.38;;;43.26;22.62
28628;BME280;15815;46.760;19.604;2023-07-20T10:18:59;99800.81;;;43.02;23.42
28628;BME280;15815;46.760;19.604;2023-07-20T10:21:29;99807.03;;;42.36;23.81
28628;BME280;15815;46.760;19.604;2023-07-20T10:23:56;99807.41;;;41.51;23.90
28628;BME280;15815;46.760;19.604;2023-07-20T10:26:21;99797.38;;;41.44;23.58
28628;BME280;15815;46.760;19.604;2023-07-20T10:28:47;99798.03;;;41.21;24.47
28628;BME280;15815;46.760;19.604;2023-07-20T10:31:13;99796.59;;;41.11;23.91
28628;BME280;15815;46.760;19.604;2023-07-20T10:33:39;99795.94;;;41.12;24.43
28628;BME280;15815;46.760;19.604;2023-07-20T10:36:06;99802.41;;;41.53;23.48
28628;BME280;15815;46.760;19.604;2023-07-20T10:43:45;99795.56;;;40.23;25.02
28628;BME280;15815;46.760;19.604;2023-07-20T10:46:12;99804.03;;;40.38;24.69
28628;BME280;15815;46.760;19.604;2023-07-20T10:49:01;99795.22;;;40.38;24.25
28628;BME280;15815;46.760;19.604;2023-07-20T10:51:26;99798.88;;;39.47;25.68
28628;BME280;15815;46.760;19.604;2023-07-20T10:53:52;99789.16;;;39.25;26.69
28628;BME280;15815;46.760;19.604;2023-07-20T10:56:26;99811.28;;;39.07;25.75
28628;BME280;15815;46.760;19.604;2023-07-20T10:58:57;99802.00;;;39.11;25.55
28628;BME280;15815;46.760;19.604;2023-07-20T11:01:28;99808.75;;;39.42;25.62
28628;BME280;15815;46.760;19.604;2023-07-20T11:03:57;99810.94;;;39.03;25.28
28628;BME280;15815;46.760;19.604;2023-07-20T11:09:10;99785.88;;;38.27;25.02
28628;BME280;15815;46.760;19.604;2023-07-20T11:11:38;99813.75;;;38.36;26.86
28628;BME280;15815;46.760;19.604;2023-07-20T11:14:08;99807.03;;;38.25;27.39
28628;BME280;15815;46.760;19.604;2023-07-20T11:16:39;99800.97;;;38.14;29.15
28628;BME280;15815;46.760;19.604;2023-07-20T11:19:06;99799.88;;;38.09;27.57
28628;BME280;15815;46.760;19.604;2023-07-20T11:21:36;99806.09;;;37.86;27.56
28628;BME280;15815;46.760;19.604;2023-07-20T11:24:05;99794.03;;;37.82;28.00
28628;BME280;15815;46.760;19.604;2023-07-20T11:26:39;99796.78;;;37.53;28.09
28628;BME280;15815;46.760;19.604;2023-07-20T11:29:05;99797.63;;;37.46;28.13
28628;BME280;15815;46.760;19.604;2023-07-20T11:31:30;99802.28;;;37.49;28.30
28628;BME280;15815;46.760;19.604;2023-07-20T11:33:59;99794.41;;;37.07;28.18
28628;BME280;15815;46.760;19.604;2023-07-20T11:36:25;99784.06;;;37.06;28.34
28628;BME280;15815;46.760;19.604;2023-07-20T11:38:51;99778.72;;;36.78;28.80
28628;BME280;15815;46.760;19.604;2023-07-20T11:41:16;99793.72;;;36.82;28.93
28628;BME280;15815;46.760;19.604;2023-07-20T11:43:42;99787.09;;;36.81;29.69
28628;BME280;15815;46.760;19.604;2023-07-20T11:46:07;99800.78;;;36.79;27.69
28628;BME280;15815;46.760;19.604;2023-07-20T11:48:34;99806.78;;;36.39;28.26
28628;BME280;15815;46.760;19.604;2023-07-20T11:50:59;99786.16;;;36.29;27.76
28628;BME280;15815;46.760;19.604;2023-07-20T11:53:25;99789.03;;;36.12;27.98
28628;BME280;15815;46.760;19.604;2023-07-20T11:55:52;99794.06;;;36.19;28.52
28628;BME280;15815;46.760;19.604;2023-07-20T11:58:17;99815.00;;;36.08;27.71
28628;BME280;15815;46.760;19.604;2023-07-20T12:00:44;99797.41;;;35.90;27.75
28628;BME280;15815;46.760;19.604;2023-07-20T12:03:10;99811.44;;;35.52;27.88
28628;BME280;15815;46.760;19.604;2023-07-20T12:05:37;99804.31;;;35.70;28.90
28628;BME280;15815;46.760;19.604;2023-07-20T12:08:03;99804.75;;;35.67;30.27
28628;BME280;15815;46.760;19.604;2023-07-20T12:10:29;99802.84;;;35.54;28.71
28628;BME280;15815;46.760;19.604;2023-07-20T12:12:54;99785.69;;;35.58;29.87
28628;BME280;15815;46.760;19.604;2023-07-20T12:15:26;99794.31;;;35.48;30.10
28628;BME280;15815;46.760;19.604;2023-07-20T12:17:52;99797.28;;;35.41;30.01
28628;BME280;15815;46.760;19.604;2023-07-20T12:20:26;99799.69;;;35.67;29.18
28628;BME280;15815;46.760;19.604;2023-07-20T12:22:59;99801.31;;;35.53;29.23
28628;BME280;15815;46.760;19.604;2023-07-20T12:28:13;99802.97;;;35.23;28.83
28628;BME280;15815;46.760;19.604;2023-07-20T12:30:40;99782.72;;;35.25;29.92
28628;BME280;15815;46.760;19.604;2023-07-20T12:33:06;99787.44;;;35.13;28.66
28628;BME280;15815;46.760;19.604;2023-07-20T12:35:32;99799.50;;;35.17;29.81
28628;BME280;15815;46.760;19.604;2023-07-20T12:38:02;99791.00;;;34.96;29.08
28628;BME280;15815;46.760;19.604;2023-07-20T12:40:27;99794.69;;;34.97;30.57
28628;BME280;15815;46.760;19.604;2023-07-20T12:42:53;99776.03;;;34.92;29.65
28628;BME280;15815;46.760;19.604;2023-07-20T12:45:18;99788.13;;;34.81;29.98
28628;BME280;15815;46.760;19.604;2023-07-20T12:47:44;99793.31;;;34.98;30.35
28628;BME280;15815;46.760;19.604;2023-07-20T12:50:10;99801.50;;;34.99;29.38
28628;BME280;15815;46.760;19.604;2023-07-20T12:52:40;99797.47;;;34.80;28.91
28628;BME280;15815;46.760;19.604;2023-07-20T12:55:06;99796.50;;;34.85;28.06
28628;BME280;15815;46.760;19.604;2023-07-20T12:57:36;99785.19;;;34.81;28.27
28628;BME280;15815;46.760;19.604;2023-07-20T13:00:06;99789.53;;;34.57;27.20
28628;BME280;15815;46.760;19.604;2023-07-20T13:02:32;99794.00;;;34.58;28.40
28628;BME280;15815;46.760;19.604;2023-07-20T13:04:58;99784.25;;;34.63;28.63
28628;BME280;15815;46.760;19.604;2023-07-20T13:07:31;99795.34;;;34.57;28.70
28628;BME280;15815;46.760;19.604;2023-07-20T13:09:58;99797.28;;;34.62;29.29
28628;BME280;15815;46.760;19.604;2023-07-20T13:12:23;99780.97;;;34.36;28.39
28628;BME280;15815;46.760;19.604;2023-07-20T13:14:49;99773.38;;;34.41;29.46
28628;BME280;15815;46.760;19.604;2023-07-20T13:17:14;99780.56;;;34.32;28.89
28628;BME280;15815;46.760;19.604;2023-07-20T13:19:40;99776.47;;;34.58;29.49